Latest Weather Observations for Mount Crawford

IDS60801

Issued at 12:01 pm CST Monday 6 July 2015 (issued every 30 minutes, with the page automatically refreshed every 10 minutes)

About weather observations | Map of weather stations | Latest weather observations for SA | Other Formats
Station Details ID: 023878 Name: MT CRAWFORD AWS Lat: -34.73 Lon: 138.93 Height: 525.0 m
Data from the previous 72 hours. | See also: Recent months at Mount Crawford
Date/Time
CST
Temp
°C
App
Temp
°C
Dew
Point
Rel
Hum
%
Delta-T
°C
Wind Press
QNH
hPa
Press
MSL
hPa
Rain
since 9 am
mm
Dir
 
Spd
km/h
Gust
km/h
Spd
kts
Gust
kts
06/12:00pm 10.0 2.9 9.4 96 0.3 W 37 46 20 25 1015.7 1016.1 0.0
06/11:30am 9.3 4.6 9.3 100 0.0 W 24 33 13 18 1015.9 1016.3 0.0
06/11:00am 8.9 3.3 8.9 100 0.0 W 28 39 15 21 1016.1 1016.6 0.0
06/10:30am 8.5 3.6 8.5 100 0.0 W 24 35 13 19 1016.2 1016.7 0.0
06/10:00am 7.8 2.7 7.8 100 0.0 WNW 24 30 13 16 1016.1 1016.6 0.0
06/09:30am 7.3 2.5 7.3 100 0.0 W 22 32 12 17 1015.9 1016.3 0.0
06/09:00am 6.9 2.4 6.9 100 0.0 WNW 20 32 11 17 1015.5 1015.9 3.6
06/08:30am 6.6 2.0 6.5 99 0.0 WNW 20 26 11 14 1015.2 1015.6 3.6
06/08:00am 6.6 2.2 6.5 99 0.0 W 19 24 10 13 1014.9 1015.4 3.6
06/07:30am 6.5 2.1 6.4 99 0.0 WNW 19 28 10 15 1014.6 1015.1 3.6
06/07:00am 6.7 2.3 6.6 99 0.0 WNW 19 30 10 16 1014.7 1015.2 3.4
06/06:30am 6.9 2.2 6.2 95 0.3 NW 20 32 11 17 1014.6 1015.1 2.2
06/06:00am 6.9 2.3 5.7 92 0.6 SSW 19 26 10 14 1015.2 1015.6 0.6
06/05:30am 7.4 2.5 5.0 85 1.1 NW 20 30 11 16 1014.3 1014.7 0.4
06/05:00am 7.3 3.0 5.4 88 0.9 NW 17 24 9 13 1014.5 1015.0 0.4
06/04:30am 7.5 3.2 5.3 86 1.0 NW 17 30 9 16 1014.6 1015.1 0.4
06/04:00am 8.1 3.2 5.0 81 1.4 WNW 20 32 11 17 1014.9 1015.4 0.2
06/03:30am 7.9 2.9 4.8 81 1.4 WNW 20 32 11 17 1015.2 1015.6 0.2
06/03:00am 8.4 3.4 4.4 76 1.8 NW 20 30 11 16 1014.9 1015.4 0.0
06/02:30am 8.3 3.3 4.7 78 1.6 NNW 20 28 11 15 1014.9 1015.4 0.0
06/02:00am 8.9 3.7 3.7 70 2.3 NNW 20 28 11 15 1015.1 1015.5 0.0
06/01:30am 9.1 3.5 3.7 69 2.4 NNW 22 35 12 19 1015.2 1015.6 0.0
06/01:00am 9.1 2.8 3.5 68 2.5 NNW 26 35 14 19 1015.2 1015.6 0.0
06/12:30am 9.2 3.6 3.6 68 2.5 NNW 22 33 12 18 1015.7 1016.1 0.0
06/12:00am 9.4 3.5 3.8 68 2.5 NNW 24 32 13 17 1016.1 1016.6 0.0
 
Date/Time
CST
Temp
°C
App
Temp
°C
Dew
Point
Rel
Hum
%
Delta-T
°C
Wind Press
QNH
hPa
Press
MSL
hPa
Rain
since 9 am
mm
Dir
 
Spd
km/h
Gust
km/h
Spd
kts
Gust
kts
05/11:30pm 9.7 3.8 3.7 66 2.7 NNW 24 37 13 20 1016.3 1016.8 0.0
05/11:00pm 9.5 4.0 4.1 69 2.5 NNW 22 32 12 17 1016.5 1017.0 0.0
05/10:30pm 9.3 4.2 4.3 71 2.3 NNW 20 28 11 15 1016.7 1017.2 0.0
05/10:00pm 9.2 4.2 4.8 74 2.0 NNW 20 28 11 15 1016.9 1017.4 0.0
05/09:30pm 9.8 4.3 4.2 68 2.6 NNW 22 32 12 17 1017.1 1017.5 0.0
05/09:00pm 9.8 4.7 4.0 67 2.6 NNW 20 28 11 15 1017.1 1017.5 0.0
05/08:30pm 9.5 4.4 4.1 69 2.4 NNW 20 28 11 15 1016.9 1017.4 0.0
05/08:00pm 9.4 4.5 4.0 69 2.4 NNW 19 26 10 14 1016.9 1017.4 0.0
05/07:30pm 9.3 4.4 4.1 70 2.4 NNW 19 24 10 13 1017.1 1017.5 0.0
05/07:00pm 9.1 5.0 4.1 71 2.3 N 15 20 8 11 1017.1 1017.5 0.0
05/06:30pm 9.4 5.3 4.2 70 2.4 N 15 22 8 12 1016.9 1017.4 0.0
05/06:00pm 10.2 5.2 3.7 64 2.9 NNW 19 26 10 14 1016.8 1017.3 0.0
05/05:30pm 10.4 6.2 3.9 64 3.0 NW 15 20 8 11 1016.9 1017.4 0.0
05/05:00pm 11.2 6.6 3.5 59 3.5 NW 17 24 9 13 1016.8 1017.3 0.0
05/04:30pm 12.0 7.6 4.5 60 3.5 NW 17 26 9 14 1016.9 1017.4 0.0
05/04:00pm 12.3 7.3 4.5 59 3.7 WNW 20 26 11 14 1016.9 1017.4 0.0
05/03:30pm 12.4 7.0 4.6 59 3.7 WNW 22 33 12 18 1016.9 1017.4 0.0
05/03:00pm 12.7 7.4 5.1 60 3.6 WNW 22 32 12 17 1017.2 1017.6 0.0
05/02:30pm 12.5 6.9 5.2 61 3.5 WNW 24 39 13 21 1017.3 1017.7 0.0
05/02:00pm 12.2 6.5 4.7 60 3.5 WNW 24 35 13 19 1017.4 1017.8 0.0
05/01:30pm 12.0 6.6 4.5 60 3.5 WNW 22 35 12 19 1017.6 1018.0 0.0
05/01:00pm 12.1 7.2 5.0 62 3.4 WNW 20 32 11 17 1018.1 1018.6 0.0
05/12:30pm 11.5 6.2 5.2 65 3.0 WNW 22 32 12 17 1018.5 1019.0 0.0
05/12:00pm 11.3 6.7 5.6 68 2.7 NW 19 24 10 13 1019.0 1019.5 0.0
05/11:30am 10.7 6.2 6.3 74 2.1 NW 19 24 10 13 1019.4 1019.9 0.0
05/11:00am 10.1 5.9 5.5 73 2.2 NW 17 22 9 12 1019.8 1020.3 0.0
05/10:30am 9.3 5.0 5.3 76 1.9 NW 17 24 9 13 1019.9 1020.4 0.0
05/10:00am 9.4 5.1 5.4 76 1.9 NNW 17 22 9 12 1020.1 1020.6 0.0
05/09:30am 8.7 4.3 4.9 77 1.7 NNW 17 22 9 12 1020.1 1020.6 0.0
05/09:00am 8.2 4.2 5.0 80 1.5 NNW 15 20 8 11 1020.0 1020.5 0.0
05/08:30am 7.6 3.2 4.9 83 1.2 NNW 17 20 9 11 1019.9 1020.4 0.0
05/08:00am 7.3 2.5 4.8 84 1.1 NNW 19 20 10 11 1019.8 1020.3 0.0
05/07:30am 6.9 2.5 4.7 86 1.0 NNW 17 20 9 11 1019.7 1020.2 0.0
05/07:00am 6.9 2.5 4.6 85 1.0 NNW 17 20 9 11 1019.7 1020.2 0.0
05/06:30am 7.3 2.5 4.6 83 1.2 NNW 19 20 10 11 1019.7 1020.2 0.0
05/06:00am 7.3 2.9 4.6 83 1.2 NNW 17 20 9 11 1019.4 1019.9 0.0
05/05:30am 7.4 3.0 4.7 83 1.2 NNW 17 20 9 11 1019.5 1020.0 0.0
05/05:00am 7.3 2.9 4.9 85 1.1 NNW 17 19 9 10 1019.5 1020.0 0.0
05/04:30am 7.4 3.1 5.2 86 1.0 NNW 17 19 9 10 1019.4 1019.9 0.0
05/04:00am 7.6 3.8 5.7 88 0.9 NNW 15 20 8 11 1019.6 1020.1 0.0
05/03:30am 7.6 3.9 6.4 92 0.6 NNW 15 19 8 10 1019.6 1020.1 0.0
05/03:00am 7.7 4.4 6.6 93 0.5 NNW 13 17 7 9 1019.8 1020.3 0.0
05/02:30am 7.9 3.9 6.7 92 0.6 NNW 17 20 9 11 1019.9 1020.4 0.0
05/02:00am 8.0 4.0 6.8 92 0.6 N 17 20 9 11 1019.7 1020.2 0.0
05/01:30am 8.0 4.1 7.1 94 0.4 N 17 20 9 11 1020.0 1020.5 0.0
05/01:00am 8.0 4.1 7.2 95 0.4 N 17 19 9 10 1020.1 1020.6 0.0
05/12:30am 8.1 4.5 6.9 92 0.6 N 15 19 8 10 1020.5 1021.0 0.0
05/12:00am 8.5 5.0 7.0 90 0.7 NNW 15 19 8 10 1020.7 1021.2 0.0
 
Date/Time
CST
Temp
°C
App
Temp
°C
Dew
Point
Rel
Hum
%
Delta-T
°C
Wind Press
QNH
hPa
Press
MSL
hPa
Rain
since 9 am
mm
Dir
 
Spd
km/h
Gust
km/h
Spd
kts
Gust
kts
04/11:30pm 8.8 5.6 6.8 87 1.0 NNW 13 15 7 8 1020.9 1021.5 0.0
04/11:00pm 9.0 5.8 6.8 86 1.1 N 13 15 7 8 1021.0 1021.6 0.0
04/10:30pm 9.1 5.8 6.4 83 1.3 NNW 13 15 7 8 1021.2 1021.7 0.0
04/10:00pm 9.4 6.5 6.3 81 1.5 NNW 11 13 6 7 1021.2 1021.7 0.0
04/09:30pm 9.6 6.6 6.0 78 1.7 NW 11 13 6 7 1021.3 1021.8 0.0
04/09:00pm 9.6 6.6 6.0 78 1.7 NW 11 13 6 7 1021.4 1021.9 0.0
04/08:30pm 9.5 6.8 5.7 77 1.8 NW 9 11 5 6 1021.6 1022.1 0.0
04/08:00pm 9.5 7.1 6.8 83 1.3 NW 9 9 5 5 1021.7 1022.2 0.0
04/07:30pm 9.3 7.1 6.4 82 1.4 W 7 9 4 5 1021.7 1022.2 0.0
04/07:00pm 9.3 6.7 6.2 81 1.5 SW 9 11 5 6 1021.9 1022.4 0.0
04/06:30pm 9.1 6.2 6.5 84 1.2 WSW 11 13 6 7 1021.8 1022.3 0.0
04/06:00pm 9.0 6.6 7.0 87 1.0 WSW 9 13 5 7 1021.5 1022.0 0.0
04/05:30pm 9.5 7.1 6.8 83 1.3 W 9 13 5 7 1021.2 1021.7 0.0
04/05:00pm 10.4 7.6 6.9 79 1.7 WNW 11 15 6 8 1021.2 1021.7 0.0
04/04:30pm 11.3 8.1 7.0 75 2.1 W 13 17 7 9 1021.2 1021.7 0.0
04/04:00pm 11.4 7.9 7.1 75 2.1 W 15 19 8 10 1021.2 1021.7 0.0
04/03:30pm 11.0 7.8 6.7 75 2.1 W 13 17 7 9 1021.2 1021.7 0.0
04/03:00pm 11.0 7.8 6.9 76 2.0 W 13 17 7 9 1021.3 1021.8 0.0
04/02:30pm 11.3 8.1 7.0 75 2.1 W 13 15 7 8 1021.2 1021.7 0.0
04/02:00pm 11.3 8.5 7.0 75 2.1 WNW 11 17 6 9 1021.4 1021.9 0.0
04/01:30pm 11.2 8.1 7.3 77 1.9 W 13 19 7 10 1021.6 1022.1 0.0
04/01:00pm 12.0 9.5 8.1 77 2.0 W 11 17 6 9 1022.0 1022.5 0.0
04/12:30pm 11.2 8.5 7.5 78 1.8 WSW 11 15 6 8 1022.4 1022.9 0.0
04/12:00pm 11.1 8.3 7.0 76 2.0 WSW 11 15 6 8 1022.7 1023.3 0.0
04/11:30am 10.7 7.9 7.0 78 1.8 W 11 15 6 8 1023.2 1023.7 0.0
04/11:00am 10.2 7.8 6.9 80 1.6 W 9 11 5 6 1023.5 1024.0 0.0
04/10:30am 9.4 6.9 6.5 82 1.4 WNW 9 11 5 6 1023.6 1024.1 0.0
04/10:00am 8.7 5.8 6.7 87 1.0 WNW 11 17 6 9 1023.8 1024.3 0.0
04/09:30am 7.2 3.8 6.0 92 0.6 WNW 13 15 7 8 1023.8 1024.3 0.0
04/09:00am 7.2 5.0 6.3 94 0.4 W 7 11 4 6 1023.7 1024.2 0.2
04/08:30am 7.8 7.0 6.6 92 0.6 CALM 0 6 0 3 1023.5 1024.0 0.2
04/08:00am 7.5 6.6 6.0 90 0.7 CALM 0 0 0 0 1023.4 1023.9 0.2
04/07:30am 7.3 6.4 5.9 91 0.6 CALM 0 0 0 0 1023.3 1023.8 0.2
04/07:00am 7.2 5.1 5.8 91 0.6 WSW 6 7 3 4 1022.9 1023.5 0.2
04/06:30am 7.3 5.0 5.9 91 0.6 WSW 7 9 4 5 1022.8 1023.4 0.2
04/06:00am 7.7 4.8 6.3 91 0.7 SW 11 13 6 7 1022.7 1023.3 0.2
04/05:30am 7.3 4.3 6.1 92 0.6 SW 11 13 6 7 1022.5 1023.0 0.2
04/05:00am 7.1 4.1 6.0 93 0.5 SW 11 13 6 7 1022.4 1022.9 0.2
04/04:30am 7.1 4.4 5.7 91 0.6 SSW 9 11 5 6 1022.4 1022.9 0.0
04/04:00am 7.2 4.5 5.7 90 0.7 SSW 9 11 5 6 1022.5 1023.0 0.0
04/03:30am 7.3 4.3 5.8 90 0.7 SW 11 13 6 7 1022.7 1023.3 0.0
04/03:00am 6.9 3.9 5.8 93 0.5 SW 11 13 6 7 1022.8 1023.4 0.0
04/02:30am 7.0 4.4 5.9 93 0.5 SW 9 11 5 6 1022.8 1023.4 0.0
04/02:00am 6.4 3.7 5.4 93 0.5 W 9 11 5 6 1023.2 1023.7 0.0
04/01:30am 6.4 3.3 5.5 94 0.4 W 11 11 6 6 1023.2 1023.7 0.0
04/01:00am 6.7 4.0 5.7 93 0.5 WNW 9 11 5 6 1023.3 1023.8 0.0
04/12:30am 6.6 3.9 5.4 92 0.5 WSW 9 11 5 6 1023.5 1024.0 0.0
04/12:00am 6.7 3.9 5.3 91 0.6 W 9 11 5 6 1023.8 1024.3 0.0
 
Date/Time
CST
Temp
°C
App
Temp
°C
Dew
Point
Rel
Hum
%
Delta-T
°C
Wind Press
QNH
hPa
Press
MSL
hPa
Rain
since 9 am
mm
Dir
 
Spd
km/h
Gust
km/h
Spd
kts
Gust
kts
03/11:30pm 6.8 3.7 5.4 91 0.6 WSW 11 13 6 7 1024.1 1024.6 0.0
03/11:00pm 6.8 3.3 5.3 90 0.7 WSW 13 15 7 8 1024.2 1024.8 0.0
03/10:30pm 6.9 3.7 5.2 89 0.8 WSW 11 13 6 7 1024.2 1024.8 0.0
03/10:00pm 7.0 3.7 4.8 86 1.0 WSW 11 15 6 8 1024.5 1025.1 0.0
03/09:30pm 7.1 3.4 4.6 84 1.1 WSW 13 17 7 9 1024.7 1025.3 0.0
03/09:00pm 7.2 3.5 4.2 81 1.3 WSW 13 17 7 9 1024.7 1025.3 0.0
03/08:30pm 7.1 3.7 4.1 81 1.3 WSW 11 17 6 9 1024.7 1025.3 0.0
03/08:00pm 6.9 3.1 3.9 81 1.3 WSW 13 17 7 9 1024.7 1025.3 0.0
03/07:30pm 6.5 2.8 4.5 87 0.9 WSW 13 15 7 8 1024.8 1025.4 0.0
03/07:00pm 6.4 3.2 5.2 92 0.5 WSW 11 13 6 7 1024.6 1025.2 0.0
03/06:30pm 6.4 3.3 5.4 93 0.5 WSW 11 13 6 7 1024.6 1025.2 0.0
03/06:00pm 6.4 3.3 5.4 93 0.5 WSW 11 15 6 8 1024.7 1025.3 0.0
03/05:30pm 6.6 2.7 5.2 91 0.6 W 15 20 8 11 1024.8 1025.4 0.0
03/05:00pm 7.4 3.4 5.0 85 1.1 W 15 22 8 12 1024.7 1025.3 0.0
03/04:30pm 8.3 3.6 5.1 80 1.5 W 19 24 10 13 1024.8 1025.4 0.0
03/04:00pm 8.0 4.0 5.1 82 1.3 W 15 22 8 12 1024.9 1025.5 0.0
03/03:30pm 8.0 4.0 4.9 81 1.4 W 15 19 8 10 1024.9 1025.5 0.0
03/03:00pm 8.4 4.8 5.0 79 1.6 WNW 13 22 7 12 1024.8 1025.4 0.0
03/02:30pm 8.6 4.6 5.0 78 1.6 NW 15 24 8 13 1024.8 1025.4 0.0
03/02:00pm 8.5 4.1 4.7 77 1.7 NNW 17 22 9 12 1025.0 1025.6 0.0
03/01:30pm 8.8 4.4 4.8 76 1.8 N 17 24 9 13 1025.3 1025.8 0.0
03/01:00pm 8.5 3.6 4.3 75 1.9 NNW 19 24 10 13 1025.8 1026.4 0.0
03/12:30pm 8.4 5.1 4.4 76 1.8 N 11 17 6 9 1026.1 1026.7 0.0

Other Formats:

Comma delimited format used in spreadsheet applications
http://www.bom.gov.au/fwo/IDS60801/IDS60801.94678.axf

JavaScript Object Notation format (JSON) in row-major order
http://www.bom.gov.au/fwo/IDS60801/IDS60801.94678.json